createdAt,value
2018-05-05T00:02:18.484Z,25.77
2018-05-05T00:04:48.003Z,23.93
2018-05-05T00:07:16.978Z,25.23
2018-05-05T00:09:46.499Z,24.93
2018-05-05T00:12:15.899Z,26.40
2018-05-05T00:14:45.518Z,24.23
2018-05-05T00:17:15.258Z,25.60
2018-05-05T00:19:43.999Z,26.00
2018-05-05T00:22:13.258Z,27.30
2018-05-05T00:24:42.498Z,25.13
2018-05-05T00:27:11.920Z,26.40
2018-05-05T00:29:40.759Z,24.97
2018-05-05T00:32:10.070Z,26.43
2018-05-05T00:34:39.318Z,25.37
2018-05-05T00:37:08.225Z,24.23
2018-05-05T00:39:37.998Z,24.47
2018-05-05T00:42:06.499Z,25.43
2018-05-05T00:44:35.498Z,28.50
2018-05-05T00:47:04.718Z,24.83
2018-05-05T00:49:33.199Z,28.03
2018-05-05T00:52:02.001Z,25.20
2018-05-05T00:54:42.100Z,26.57
2018-05-05T00:57:11.919Z,25.50
2018-05-05T00:59:40.958Z,25.90
2018-05-05T01:02:10.199Z,26.07
2018-05-05T01:04:39.458Z,25.97
2018-05-05T01:07:08.400Z,27.20
2018-05-05T01:09:37.318Z,25.87
2018-05-05T01:12:06.698Z,26.67
2018-05-05T01:14:35.658Z,25.03
2018-05-05T01:17:05.161Z,26.37
2018-05-05T01:19:34.438Z,26.53
2018-05-05T01:22:03.678Z,27.40
2018-05-05T01:24:32.438Z,28.27
2018-05-05T01:27:01.818Z,26.03
2018-05-05T01:29:31.439Z,25.67
2018-05-05T01:32:00.418Z,25.40
2018-05-05T01:34:29.458Z,25.43
2018-05-05T01:36:58.657Z,23.40
2018-05-05T01:39:27.145Z,22.37
2018-05-05T01:41:56.178Z,23.40
2018-05-05T01:44:24.908Z,22.17
2018-05-05T01:46:55.398Z,23.40
2018-05-05T01:49:24.138Z,25.40
2018-05-05T01:51:52.877Z,25.00
2018-05-05T01:54:21.678Z,25.77
2018-05-05T01:56:50.357Z,25.17
2018-05-05T01:59:19.278Z,26.03
2018-05-05T02:01:48.378Z,24.60
2018-05-05T02:04:17.577Z,22.80
2018-05-05T02:06:45.772Z,24.20
2018-05-05T02:09:14.278Z,25.20
2018-05-05T02:11:42.797Z,24.57
2018-05-05T02:14:11.517Z,23.17
2018-05-05T02:16:40.078Z,22.17
2018-05-05T02:19:09.238Z,22.57
2018-05-05T02:21:37.718Z,24.23
2018-05-05T02:24:06.977Z,24.20
2018-05-05T02:26:35.977Z,21.77
2018-05-05T02:29:05.242Z,19.90
2018-05-05T02:31:34.720Z,20.77
2018-05-05T02:34:04.478Z,20.80
2018-05-05T02:36:33.240Z,19.00
2018-05-05T02:39:02.980Z,19.30
2018-05-05T02:41:31.538Z,18.23
2018-05-05T02:44:00.201Z,17.60
2018-05-05T02:46:29.698Z,18.30
2018-05-05T02:48:58.958Z,18.20
2018-05-05T02:51:28.538Z,20.67
2018-05-05T02:53:57.718Z,21.97
2018-05-05T02:56:26.718Z,20.13
2018-05-05T02:58:56.385Z,21.37
2018-05-05T03:01:25.237Z,20.77
2018-05-05T03:03:54.810Z,20.50
2018-05-05T03:06:23.658Z,19.90
2018-05-05T03:08:52.698Z,20.30
2018-05-05T03:11:21.587Z,20.67
2018-05-05T03:13:51.439Z,18.80
2018-05-05T03:16:20.177Z,19.03
2018-05-05T03:18:48.778Z,19.07
2018-05-05T03:21:18.158Z,18.30
2018-05-05T03:23:46.918Z,18.97
2018-05-05T03:26:16.558Z,19.37
2018-05-05T03:28:46.118Z,19.53
2018-05-05T03:31:15.678Z,17.17
2018-05-05T03:33:44.558Z,19.77
2018-05-05T03:36:13.059Z,19.47
2018-05-05T03:38:42.139Z,19.90
2018-05-05T03:41:11.097Z,20.13
2018-05-05T03:43:40.378Z,19.37
2018-05-05T03:46:09.662Z,19.50
2018-05-05T03:48:39.398Z,21.27
2018-05-05T03:51:08.898Z,21.53
2018-05-05T03:53:38.078Z,22.50
2018-05-05T03:56:06.917Z,21.47
2018-05-05T03:58:36.018Z,21.97
2018-05-05T04:01:16.399Z,19.90
2018-05-05T04:03:51.600Z,20.97
2018-05-05T04:06:20.538Z,21.27
2018-05-05T04:08:49.538Z,19.90
2018-05-05T04:11:19.319Z,21.90
2018-05-05T04:13:47.799Z,18.83
2018-05-05T04:16:16.723Z,20.33
2018-05-05T04:18:46.179Z,22.23
2018-05-05T04:21:14.800Z,20.60
2018-05-05T04:23:44.278Z,20.10
2018-05-05T04:26:12.998Z,21.57
2018-05-05T04:28:41.939Z,22.53
2018-05-05T04:31:10.718Z,21.30
2018-05-05T04:33:39.698Z,20.43
2018-05-05T04:36:08.698Z,19.50
2018-05-05T04:38:37.042Z,21.10
2018-05-05T04:41:06.438Z,19.73
2018-05-05T04:43:35.277Z,20.63
2018-05-05T04:46:04.022Z,19.63
2018-05-05T04:48:33.118Z,21.50
2018-05-05T04:51:01.642Z,22.13
2018-05-05T04:53:30.638Z,23.83
2018-05-05T04:55:59.605Z,20.20
2018-05-05T04:58:28.598Z,22.57
2018-05-05T05:00:57.639Z,23.50
2018-05-05T05:03:27.358Z,21.60
2018-05-05T05:05:56.638Z,20.90
2018-05-05T05:08:26.378Z,21.73
2018-05-05T05:10:55.638Z,21.40
2018-05-05T05:13:24.378Z,22.20
2018-05-05T05:15:53.045Z,19.93
2018-05-05T05:18:22.418Z,20.57
2018-05-05T05:20:51.358Z,20.70
2018-05-05T05:23:20.357Z,23.27
2018-05-05T05:25:49.837Z,22.63
2018-05-05T05:28:18.838Z,21.20
2018-05-05T05:30:47.828Z,25.20
2018-05-05T05:33:16.558Z,19.80
2018-05-05T05:35:45.837Z,21.13
2018-05-05T05:38:16.098Z,19.70
2018-05-05T05:40:45.597Z,22.90
2018-05-05T05:43:15.117Z,21.73
2018-05-05T05:45:44.098Z,22.97
2018-05-05T05:48:13.524Z,21.20
2018-05-05T05:50:42.339Z,23.77
2018-05-05T05:53:11.084Z,22.40
2018-05-05T05:55:41.636Z,24.03
2018-05-05T05:58:11.617Z,25.30
2018-05-05T06:00:40.357Z,24.87
2018-05-05T06:03:09.877Z,25.60
2018-05-05T06:05:38.858Z,27.93
2018-05-05T06:08:07.598Z,25.03
2018-05-05T06:10:36.697Z,25.83
2018-05-05T06:13:05.838Z,25.93
2018-05-05T06:15:34.758Z,25.80
2018-05-05T06:18:03.942Z,25.77
2018-05-05T06:20:32.807Z,23.53
2018-05-05T06:23:02.324Z,28.43
2018-05-05T06:25:31.417Z,23.43
2018-05-05T06:28:00.559Z,25.53
2018-05-05T06:30:29.960Z,25.53
2018-05-05T06:32:58.824Z,26.53
2018-05-05T06:35:28.317Z,25.33
2018-05-05T06:37:57.297Z,28.67
2018-05-05T06:40:26.563Z,25.20
2018-05-05T06:42:56.061Z,25.07
2018-05-05T06:45:25.141Z,25.23
2018-05-05T06:47:54.299Z,24.57
2018-05-05T06:50:23.598Z,25.10
2018-05-05T06:52:53.059Z,25.60
2018-05-05T06:55:21.539Z,25.00
2018-05-05T06:57:50.788Z,26.53
2018-05-05T07:00:19.778Z,25.13
2018-05-05T07:02:48.387Z,26.90
2018-05-05T07:05:17.338Z,25.00
2018-05-05T07:07:45.998Z,25.67
2018-05-05T07:10:14.998Z,26.17
2018-05-05T07:12:44.758Z,27.37
2018-05-05T07:15:14.521Z,24.13
2018-05-05T07:17:44.789Z,24.20
2018-05-05T07:20:13.489Z,24.93
2018-05-05T07:22:42.250Z,24.83
2018-05-05T07:25:11.517Z,24.77
2018-05-05T07:27:40.981Z,23.73
2018-05-05T07:30:09.759Z,25.17
2018-05-05T07:32:39.280Z,24.07
2018-05-05T07:35:08.519Z,24.97
2018-05-05T07:37:37.999Z,27.97
2018-05-05T07:40:06.969Z,27.90
2018-05-05T07:42:36.250Z,26.60
2018-05-05T07:45:04.994Z,28.07
2018-05-05T07:47:33.670Z,29.30
2018-05-05T07:50:02.770Z,26.93
2018-05-05T07:52:31.290Z,27.57
2018-05-05T07:55:00.649Z,29.70
2018-05-05T07:57:29.915Z,27.50
2018-05-05T07:59:58.709Z,28.80
2018-05-05T08:02:27.689Z,27.67
2018-05-05T08:04:57.610Z,29.43
2018-05-05T08:07:26.691Z,29.40
2018-05-05T08:09:55.170Z,26.30
2018-05-05T08:12:23.910Z,26.70
2018-05-05T08:14:53.050Z,27.10
2018-05-05T08:17:21.891Z,28.67
2018-05-05T08:19:50.922Z,29.20
2018-05-05T08:22:20.395Z,26.70
2018-05-05T08:24:48.981Z,28.00
2018-05-05T08:27:17.482Z,27.97
2018-05-05T08:29:46.861Z,26.50
2018-05-05T08:32:15.881Z,28.57
2018-05-05T08:34:44.861Z,25.67
2018-05-05T08:37:13.831Z,27.23
2018-05-05T08:39:42.841Z,25.40
2018-05-05T08:42:11.682Z,25.10
2018-05-05T08:44:41.341Z,27.70
2018-05-05T08:47:10.086Z,27.03
2018-05-05T08:49:39.921Z,28.60
2018-05-05T08:52:08.861Z,25.97
2018-05-05T08:54:38.967Z,26.13
2018-05-05T08:57:08.381Z,27.20
2018-05-05T08:59:37.621Z,24.23
2018-05-05T09:02:07.101Z,26.20
2018-05-05T09:04:35.841Z,26.40
2018-05-05T09:07:04.323Z,27.67
2018-05-05T09:09:34.102Z,26.70
2018-05-05T09:12:03.791Z,25.90
2018-05-05T09:14:32.583Z,27.07
2018-05-05T09:17:01.362Z,27.63
2018-05-05T09:19:31.075Z,25.90
2018-05-05T09:21:59.321Z,27.03
2018-05-05T09:24:28.542Z,27.33
2018-05-05T09:26:57.462Z,28.77
2018-05-05T09:29:26.541Z,28.87
2018-05-05T09:31:55.542Z,28.57
2018-05-05T09:34:24.282Z,26.80
2018-05-05T09:36:53.729Z,28.10
2018-05-05T09:39:22.582Z,30.90
2018-05-05T09:41:51.522Z,27.03
2018-05-05T09:44:21.262Z,27.57
2018-05-05T09:46:50.521Z,23.50
2018-05-05T09:49:21.001Z,26.20
2018-05-05T09:51:50.561Z,24.73
2018-05-05T09:54:19.656Z,26.03
2018-05-05T09:56:48.736Z,26.47
2018-05-05T09:59:17.818Z,28.37
2018-05-05T10:01:47.298Z,25.30
2018-05-05T10:04:16.018Z,25.27
2018-05-05T10:06:45.717Z,24.00
2018-05-05T10:09:14.577Z,32.60
2018-05-05T10:11:43.517Z,24.83
2018-05-05T10:14:12.276Z,53.17
2018-05-05T10:16:41.258Z,28.07
2018-05-05T10:19:10.297Z,24.60
2018-05-05T10:21:40.038Z,23.77
2018-05-05T10:24:08.856Z,22.53
2018-05-05T10:26:38.753Z,24.07
2018-05-05T10:29:07.513Z,22.57
2018-05-05T10:31:36.871Z,22.23
2018-05-05T10:34:05.392Z,20.30
2018-05-05T10:36:34.733Z,20.80
2018-05-05T10:39:03.692Z,24.37
2018-05-05T10:41:33.172Z,23.63
2018-05-05T10:44:02.439Z,20.40
2018-05-05T10:46:31.395Z,20.20
2018-05-05T10:49:00.214Z,20.77
2018-05-05T10:51:28.856Z,21.33
2018-05-05T10:53:57.973Z,20.17
2018-05-05T10:56:27.215Z,19.30
2018-05-05T10:58:56.052Z,19.93
2018-05-05T11:01:25.231Z,20.00
2018-05-05T11:03:53.653Z,22.17
2018-05-05T11:06:22.414Z,19.10
2018-05-05T11:08:52.153Z,18.63
2018-05-05T11:11:20.892Z,20.77
2018-05-05T11:13:49.375Z,19.90
2018-05-05T11:16:19.493Z,19.13
2018-05-05T11:18:48.634Z,19.43
2018-05-05T11:21:17.912Z,20.50
2018-05-05T11:23:47.426Z,18.43
2018-05-05T11:26:16.133Z,19.17
2018-05-05T11:28:45.132Z,23.63
2018-05-05T11:31:15.173Z,18.50
2018-05-05T11:33:43.562Z,16.77
2018-05-05T11:36:13.604Z,17.07
2018-05-05T11:38:42.117Z,18.17
2018-05-05T11:41:10.608Z,18.10
2018-05-05T11:43:40.398Z,16.97
2018-05-05T11:46:09.606Z,19.40
2018-05-05T11:48:38.841Z,16.93
2018-05-05T11:51:07.548Z,18.40
2018-05-05T11:53:35.840Z,19.13
2018-05-05T11:56:04.604Z,18.50
2018-05-05T11:58:33.820Z,22.60
2018-05-05T12:01:03.319Z,19.57
2018-05-05T12:03:31.799Z,18.47
2018-05-05T12:06:01.062Z,17.13
2018-05-05T12:08:29.525Z,17.97
2018-05-05T12:10:57.941Z,16.07
2018-05-05T12:13:27.029Z,17.60
2018-05-05T12:15:55.769Z,17.30
2018-05-05T12:18:24.783Z,15.40
2018-05-05T12:20:53.744Z,16.73
2018-05-05T12:23:23.747Z,16.27
2018-05-05T12:25:53.044Z,14.17
2018-05-05T12:28:22.343Z,13.67
2018-05-05T12:30:51.543Z,14.43
2018-05-05T12:33:20.743Z,14.70
2018-05-05T12:35:49.743Z,15.37
2018-05-05T12:38:19.007Z,14.40
2018-05-05T12:40:49.763Z,15.40
2018-05-05T12:43:19.044Z,15.93
2018-05-05T12:45:48.324Z,13.93
2018-05-05T12:48:17.544Z,13.50
2018-05-05T12:50:47.544Z,16.57
2018-05-05T12:53:16.544Z,13.80
2018-05-05T12:55:45.832Z,13.90
2018-05-05T12:58:15.284Z,13.93
2018-05-05T13:00:44.234Z,14.93
2018-05-05T13:03:13.560Z,14.27
2018-05-05T13:05:43.563Z,13.27
2018-05-05T13:08:13.243Z,12.90
2018-05-05T13:10:42.043Z,12.00
2018-05-05T13:13:11.308Z,13.00
2018-05-05T13:15:40.303Z,11.03
2018-05-05T13:18:10.025Z,11.87
2018-05-05T13:20:39.603Z,14.13
2018-05-05T13:23:09.324Z,11.97
2018-05-05T13:25:38.307Z,12.90
2018-05-05T13:28:07.790Z,11.47
2018-05-05T13:30:37.065Z,12.87
2018-05-05T13:33:05.784Z,11.70
2018-05-05T13:35:34.803Z,12.50
2018-05-05T13:38:04.043Z,12.33
2018-05-05T13:40:34.166Z,11.37
2018-05-05T13:43:03.319Z,12.00
2018-05-05T13:45:33.583Z,11.50
2018-05-05T13:48:02.164Z,10.67
2018-05-05T13:50:33.430Z,12.50
2018-05-05T13:53:02.383Z,12.30
2018-05-05T13:55:32.909Z,12.90
2018-05-05T13:58:02.125Z,11.97
2018-05-05T14:00:31.125Z,12.20
2018-05-05T14:03:00.649Z,12.40
2018-05-05T14:05:30.403Z,10.97
2018-05-05T14:08:00.143Z,12.67
2018-05-05T14:10:29.665Z,11.70
2018-05-05T14:12:58.403Z,12.07
2018-05-05T14:15:27.144Z,11.53
2018-05-05T14:17:56.384Z,11.57
2018-05-05T14:20:25.643Z,11.47
2018-05-05T14:22:55.403Z,12.70
2018-05-05T14:25:24.652Z,12.40
2018-05-05T14:27:53.904Z,11.83
2018-05-05T14:30:23.143Z,12.60
2018-05-05T14:32:52.395Z,12.70
2018-05-05T14:35:21.865Z,11.30
2018-05-05T14:37:51.183Z,14.90
2018-05-05T14:40:20.415Z,12.73
2018-05-05T14:42:50.291Z,11.17
2018-05-05T14:45:19.403Z,11.23
2018-05-05T14:47:48.403Z,12.23
2018-05-05T14:50:17.383Z,11.80
2018-05-05T14:52:46.403Z,11.97
2018-05-05T14:55:15.414Z,12.23
2018-05-05T14:57:44.663Z,11.27
2018-05-05T15:00:14.004Z,12.90
2018-05-05T15:02:43.843Z,11.60
2018-05-05T15:05:13.125Z,12.53
2018-05-05T15:07:41.783Z,12.60
2018-05-05T15:10:10.363Z,13.00
2018-05-05T15:12:39.604Z,12.53
2018-05-05T15:15:08.463Z,12.77
2018-05-05T15:17:38.004Z,12.97
2018-05-05T15:20:07.604Z,11.87
2018-05-05T15:22:37.323Z,11.83
2018-05-05T15:25:07.132Z,11.73
2018-05-05T15:27:35.885Z,11.30
2018-05-05T15:30:05.645Z,13.33
2018-05-05T15:32:35.324Z,12.73
2018-05-05T15:35:04.383Z,12.27
2018-05-05T15:37:33.363Z,12.97
2018-05-05T15:40:02.363Z,17.43
2018-05-05T15:42:31.125Z,13.07
2018-05-05T15:45:00.145Z,13.10
2018-05-05T15:47:29.863Z,12.40
2018-05-05T15:49:58.363Z,12.80
2018-05-05T15:52:27.603Z,13.33
2018-05-05T15:54:56.188Z,11.63
2018-05-05T15:57:25.365Z,12.40
2018-05-05T15:59:54.787Z,12.90
2018-05-05T16:02:23.703Z,12.43
2018-05-05T16:04:52.298Z,12.70
2018-05-05T16:07:21.844Z,11.70
2018-05-05T16:09:51.064Z,11.60
2018-05-05T16:12:20.303Z,11.50
2018-05-05T16:14:49.045Z,11.80
2018-05-05T16:17:17.763Z,12.40
2018-05-05T16:19:47.083Z,11.40
2018-05-05T16:22:15.764Z,13.60
2018-05-05T16:24:44.683Z,12.73
2018-05-05T16:27:13.767Z,12.00
2018-05-05T16:29:42.664Z,10.70
2018-05-05T16:32:12.503Z,11.90
2018-05-05T16:34:41.243Z,12.17
2018-05-05T16:37:10.343Z,12.60
2018-05-05T16:39:39.763Z,11.73
2018-05-05T16:42:08.825Z,11.50
2018-05-05T16:44:38.003Z,13.30
2018-05-05T16:47:08.003Z,12.33
2018-05-05T16:49:37.244Z,12.63
2018-05-05T16:52:06.524Z,12.03
2018-05-05T16:54:35.842Z,11.90
2018-05-05T16:57:04.745Z,14.40
2018-05-05T16:59:33.988Z,11.43
2018-05-05T17:02:02.983Z,12.20
2018-05-05T17:04:32.003Z,12.20
2018-05-05T17:07:00.985Z,12.90
2018-05-05T17:09:29.783Z,14.13
2018-05-05T17:11:58.825Z,13.03
2018-05-05T17:14:27.443Z,13.40
2018-05-05T17:16:56.784Z,14.17
2018-05-05T17:19:26.003Z,14.00
2018-05-05T17:21:54.837Z,13.93
2018-05-05T17:24:23.696Z,14.50
2018-05-05T17:26:52.929Z,14.17
2018-05-05T17:29:22.183Z,14.50
2018-05-05T17:31:51.926Z,14.70
2018-05-05T17:34:20.683Z,15.30
2018-05-05T17:36:50.183Z,15.80
2018-05-05T17:39:18.865Z,15.30
2018-05-05T17:41:47.537Z,14.80
2018-05-05T17:44:16.644Z,15.33
2018-05-05T17:46:45.663Z,15.70
2018-05-05T17:49:15.903Z,15.33
2018-05-05T17:51:45.683Z,16.80
2018-05-05T17:54:14.745Z,18.40
2018-05-05T17:56:43.663Z,15.60
2018-05-05T17:59:12.924Z,16.17
2018-05-05T18:01:42.403Z,17.20
2018-05-05T18:04:12.228Z,17.10
2018-05-05T18:06:40.924Z,17.20
2018-05-05T18:09:10.143Z,16.13
2018-05-05T18:11:39.163Z,15.67
2018-05-05T18:14:08.923Z,16.77
2018-05-05T18:16:37.343Z,23.83
2018-05-05T18:19:06.647Z,17.50
2018-05-05T18:21:35.643Z,18.30
2018-05-05T18:24:04.324Z,17.27
2018-05-05T18:26:33.146Z,18.70
2018-05-05T18:29:02.345Z,17.80
2018-05-05T18:31:31.343Z,16.90
2018-05-05T18:34:01.164Z,18.67
2018-05-05T18:36:29.784Z,18.67
2018-05-05T18:38:59.125Z,18.60
2018-05-05T18:41:28.624Z,17.57
2018-05-05T18:43:57.644Z,18.13
2018-05-05T18:46:26.645Z,18.67
2018-05-05T18:48:55.843Z,21.70
2018-05-05T18:51:24.824Z,21.03
2018-05-05T18:53:54.084Z,20.63
2018-05-05T18:56:22.824Z,20.37
2018-05-05T18:58:51.824Z,21.73
2018-05-05T19:01:21.063Z,22.70
2018-05-05T19:03:50.824Z,24.33
2018-05-05T19:06:19.844Z,20.37
2018-05-05T19:08:49.324Z,22.97
2018-05-05T19:11:18.827Z,23.53
2018-05-05T19:13:48.584Z,21.43
2018-05-05T19:16:17.511Z,24.17
2018-05-05T19:18:47.083Z,21.87
2018-05-05T19:21:15.783Z,23.50
2018-05-05T19:23:45.064Z,20.93
2018-05-05T19:26:13.807Z,22.83
2018-05-05T19:28:42.563Z,23.27
2018-05-05T19:31:11.792Z,23.80
2018-05-05T19:33:41.044Z,24.03
2018-05-05T19:36:09.544Z,21.67
2018-05-05T19:38:38.624Z,22.17
2018-05-05T19:41:07.104Z,24.77
2018-05-05T19:43:35.443Z,21.97
2018-05-05T19:46:04.503Z,23.60
2018-05-05T19:48:34.244Z,20.83
2018-05-05T19:51:03.525Z,20.60
2018-05-05T19:53:32.743Z,20.57
2018-05-05T19:56:01.724Z,21.40
2018-05-05T19:58:30.724Z,20.10
2018-05-05T20:01:00.004Z,21.90
2018-05-05T20:03:28.724Z,21.17
2018-05-05T20:05:58.083Z,21.27
2018-05-05T20:08:26.483Z,22.97
2018-05-05T20:10:55.683Z,20.70
2018-05-05T20:13:24.563Z,19.70
2018-05-05T20:15:53.643Z,21.57
2018-05-05T20:18:22.925Z,20.63
2018-05-05T20:20:52.467Z,23.83
2018-05-05T20:23:21.360Z,28.37
2018-05-05T20:25:50.964Z,25.93
2018-05-05T20:28:20.447Z,23.57
2018-05-05T20:30:49.683Z,22.87
2018-05-05T20:33:19.448Z,21.07
2018-05-05T20:35:48.665Z,24.40
2018-05-05T20:38:17.686Z,25.30
2018-05-05T20:40:46.964Z,22.50
2018-05-05T20:43:15.685Z,23.37
2018-05-05T20:45:45.142Z,25.03
2018-05-05T20:48:14.683Z,25.50
2018-05-05T20:50:43.750Z,25.70
2018-05-05T20:53:13.943Z,24.50
2018-05-05T20:55:43.644Z,23.00
2018-05-05T20:58:12.963Z,22.83
2018-05-05T21:00:42.483Z,23.67
2018-05-05T21:03:12.243Z,25.60
2018-05-05T21:05:41.724Z,27.70
2018-05-05T21:08:10.724Z,26.73
2018-05-05T21:10:39.982Z,24.73
2018-05-05T21:13:08.943Z,24.60
2018-05-05T21:15:38.803Z,24.87
2018-05-05T21:18:08.003Z,27.67
2018-05-05T21:20:38.243Z,26.70
2018-05-05T21:23:07.524Z,26.23
2018-05-05T21:25:36.743Z,24.50
2018-05-05T21:28:05.747Z,25.43
2018-05-05T21:30:34.751Z,28.77
2018-05-05T21:33:05.043Z,30.00
2018-05-05T21:35:34.329Z,31.77
2018-05-05T21:38:03.524Z,25.93
2018-05-05T21:40:33.003Z,24.70
2018-05-05T21:43:02.250Z,38.47
2018-05-05T21:45:31.083Z,27.23
2018-05-05T21:48:00.243Z,26.43
2018-05-05T21:50:28.983Z,26.97
2018-05-05T21:52:59.102Z,24.73
2018-05-05T21:55:28.502Z,24.17
2018-05-05T21:57:56.862Z,24.67
2018-05-05T22:00:26.766Z,26.20
2018-05-05T22:02:56.243Z,24.37
2018-05-05T22:05:26.324Z,25.23
2018-05-05T22:07:55.125Z,24.43
2018-05-05T22:10:23.849Z,25.10
2018-05-05T22:12:53.765Z,23.20
2018-05-05T22:15:23.283Z,23.00
2018-05-05T22:17:53.024Z,27.77
2018-05-05T22:20:22.446Z,27.17
2018-05-05T22:22:51.269Z,28.20
2018-05-05T22:25:20.348Z,27.00
2018-05-05T22:27:49.650Z,23.10
2018-05-05T22:30:18.843Z,23.27
2018-05-05T22:32:48.263Z,22.87
2018-05-05T22:35:17.047Z,23.33
2018-05-05T22:37:46.003Z,21.83
2018-05-05T22:40:15.005Z,23.00
2018-05-05T22:42:44.224Z,21.60
2018-05-05T22:45:13.483Z,23.10
2018-05-05T22:47:42.224Z,21.17
2018-05-05T22:50:11.262Z,22.13
2018-05-05T22:52:40.203Z,21.97
2018-05-05T22:55:09.489Z,21.33
2018-05-05T22:57:38.763Z,23.30
2018-05-05T23:00:07.862Z,23.50
2018-05-05T23:02:37.002Z,21.33
2018-05-05T23:05:05.684Z,22.13
2018-05-05T23:07:35.202Z,21.20
2018-05-05T23:10:04.203Z,21.60
2018-05-05T23:12:33.670Z,24.43
2018-05-05T23:15:02.443Z,25.80
2018-05-05T23:17:31.163Z,24.83
2018-05-05T23:19:59.924Z,28.17
2018-05-05T23:22:29.024Z,23.93
2018-05-05T23:24:58.850Z,22.67
2018-05-05T23:27:27.664Z,23.00
2018-05-05T23:29:57.310Z,22.67
2018-05-05T23:32:26.167Z,28.13
2018-05-05T23:34:55.603Z,31.00
2018-05-05T23:37:25.183Z,29.20
2018-05-05T23:39:54.663Z,29.50
2018-05-05T23:42:23.144Z,30.20
2018-05-05T23:44:52.651Z,25.90
2018-05-05T23:47:21.119Z,26.50
2018-05-05T23:49:50.083Z,24.17
2018-05-05T23:52:18.324Z,23.43
2018-05-05T23:54:47.363Z,22.47
2018-05-05T23:57:16.323Z,22.73
2018-05-05T23:59:45.183Z,22.37
